Terminal Aerodrome Forecast
Issued by NWS

Home | Current Version | Previous Version | Text Only | Print | Product List | Glossary On
Versions: 1 2 3 4 5 6 7 8 9 10 11 12 13 14
961
FTUS46 KSEW 041125
TAFCLM
TAF
KCLM 041125Z 0412/0512 27013G23KT P6SM VCSH OVC045
     FM041600 27012KT P6SM SCT050
     FM050600 29008KT P6SM -SHRA SCT020 BKN045 OVC070=

USA.gov is the U.S. government's official web portal to all federal, state and local government web resources and services.